Scroll down
FLIGHT INFORMATION
Federal Express (FedEx)

FDX5601

At Arrival Gate

WSSS
 PHNL
DATE: 2021-07-29
GATE: 
GATE DEPARTURE: 09:34
TAKEOFF: 09:47
DATE: 2021-07-29
GATE:  -
LANDING: 22:13
GATE ARRIVAL: 22:19
FLIGHT DATA
Crew: 
Speed: 
519 kts
Altitude: 
37,002 ft
Stage Length: 
5,825.8 nm
Block Time: 
12.7 hrs
Flight Time: 
12.5 hrs
Fuel Used: 
228,923 lb
Cleared Route: WSSS HOSBA TOMAN VERIN LUSMO TERIX OLKIT DOGOG VIDIP VJN TOMUD AKMAR VSN VIMAG ANKUR PILAS ZAM GOSTO SABTA COT LINAO DEWIN KLAFU 09E30 11E35 12E40 UNZ BAGBE HOPPY FONUG STINE DEWSS JIMOS NGUEN NATIE RESEE SYSTA BRIUN HOOPA KATHS PHNL
TRACK DATA
50,000 ft 1,000 kts
AIRCRAFT INFO AND CUMULATIVE STATS
Aircraft Type: 
B77LF
Registration: 
SELCAL: 
DELM
MSN/LN: 
40684 / 1524
Total Flights: 
2
Total Block Time: 
21.3 hrs
Total Flight Time: 
20.8 hrs
Total Fuel Used: 
361,351 lb
DATALINK LOG | Newest first | Current as of: 2022-10-04 20:14:45
LABEL SEQUENCE CONTENT Dn/Up
QD300322:19 24.9▼ Dn
QC245922:13▼ Dn
2U3107PHNL 300053Z 03015G23KT 10SM FEW024 SCT060 BKN120 31/19 A3000 RMK AO2 SLP158 T03110189 VISNO RWY04R $▲ Up
2S3107PHNL▼ Dn
QB580009:47▼ Dn
QA454809:34 253.9▼ Dn
2U2934PHNL 291253Z 07010KT 10SM FEW022 BKN044 26/20 A3003 RMK AO2 SLP170 T02560200▲ Up
2U2934PHJR 291253Z AUTO 05004KT 10SM BKN047 26/20 A3004 RMK AO2 SLP180 T02560200 TSNO▲ Up
2U2933WSSS 291300Z 16007KT 9999 FEW020 BKN300 29/23 Q1010 NOSIG▲ Up
2S2933WSSS PHNL PHJR▼ Dn
A32842CLEARED TO PHNL VIA HOSBA TOMAN L625 LUSMO M758 OLKIT M758 VJN A341 ZAM W10 KLAFU 0900N/13000E 1100N/13500E 1200N/14000E UNZ A450 FONUG A450 JIMOS A450 RESEE A450 KATHS OPACA4. SQUAWK 1665.▲ Up
B32832WSSS PHNL FDX5601 N878FD ▼ Dn
Q02731[LINK ACK]▲ Up
Q02731[LINK TEST]▼ Dn


AIRCRAFT HISTORY
FLIGHT DATE FLIGHT NO. ORIGIN DESTINATION CLEARED ROUTE BLOCK TIME FLIGHT TIME FUEL USED PILOT
2022-07-31FDX75PHNL NZAA PHNL CHOKO DATBE DASNE DULCE DUNEY PUPIS UXULU LANAT UBRAX POPIR KADEN MALNI TARIB AA NZAA8.6 hrs8.3 hrs132,428 lbAllan Burek
2021-07-29FDX5601WSSS PHNL WSSS HOSBA TOMAN VERIN LUSMO TERIX OLKIT DOGOG VIDIP VJN TOMUD AKMAR VSN VIMAG ANKUR PILAS ZAM GOSTO SABTA COT LINAO DEWIN KLAFU 09E30 11E35 12E40 UNZ BAGBE HOPPY FONUG STINE DEWSS JIMOS NGUEN NATIE RESEE SYSTA BRIUN HOOPA KATHS PHNL12.7 hrs12.5 hrs228,923 lbAllan Burek